createdAt,value
2018-12-26T00:00:29.915Z,38.33
2018-12-26T00:02:58.752Z,44.43
2018-12-26T00:05:28.488Z,40.53
2018-12-26T00:07:58.778Z,39.13
2018-12-26T00:10:27.564Z,40.80
2018-12-26T00:12:56.396Z,42.20
2018-12-26T00:15:25.192Z,59.50
2018-12-26T00:17:54.065Z,49.00
2018-12-26T00:20:22.854Z,44.07
2018-12-26T00:22:51.935Z,43.23
2018-12-26T00:25:20.839Z,46.73
2018-12-26T00:27:49.635Z,45.73
2018-12-26T00:30:18.419Z,42.10
2018-12-26T00:32:47.297Z,47.07
2018-12-26T00:35:16.149Z,48.07
2018-12-26T00:37:45.003Z,47.83
2018-12-26T00:40:14.523Z,41.27
2018-12-26T00:42:43.363Z,48.57
2018-12-26T00:45:12.151Z,48.53
2018-12-26T00:47:40.939Z,41.13
2018-12-26T00:50:10.506Z,36.97
2018-12-26T00:52:39.316Z,41.13
2018-12-26T00:55:08.116Z,46.60
2018-12-26T00:57:36.948Z,49.63
2018-12-26T01:00:06.755Z,40.60
2018-12-26T01:02:35.602Z,44.37
2018-12-26T01:05:04.395Z,48.20
2018-12-26T01:07:33.719Z,43.03
2018-12-26T01:10:02.549Z,49.80
2018-12-26T01:12:31.395Z,51.03
2018-12-26T01:15:00.213Z,44.43
2018-12-26T01:17:29.039Z,48.63
2018-12-26T01:19:57.824Z,41.80
2018-12-26T01:22:26.614Z,41.77
2018-12-26T01:24:55.399Z,43.67
2018-12-26T01:27:24.827Z,51.57
2018-12-26T01:29:53.668Z,39.87
2018-12-26T01:32:22.504Z,44.03
2018-12-26T01:34:51.282Z,43.67
2018-12-26T01:37:20.073Z,50.80
2018-12-26T01:39:49.878Z,46.70
2018-12-26T01:42:18.673Z,39.77
2018-12-26T01:44:47.535Z,41.53
2018-12-26T01:47:17.285Z,45.57
2018-12-26T01:49:47.144Z,46.87
2018-12-26T01:52:15.991Z,47.93
2018-12-26T01:54:44.816Z,50.50
2018-12-26T01:57:14.479Z,44.47
2018-12-26T01:59:43.286Z,43.73
2018-12-26T02:02:12.598Z,52.40
2018-12-26T02:04:41.366Z,44.57
2018-12-26T02:07:10.795Z,44.40
2018-12-26T02:09:39.588Z,42.30
2018-12-26T02:12:08.371Z,42.27
2018-12-26T02:14:37.304Z,48.60
2018-12-26T02:17:07.100Z,46.97
2018-12-26T02:19:35.871Z,53.40
2018-12-26T02:22:05.649Z,50.73
2018-12-26T02:24:34.903Z,51.97
2018-12-26T02:27:03.740Z,50.67
2018-12-26T02:29:33.202Z,45.57
2018-12-26T02:32:01.987Z,44.10
2018-12-26T02:34:30.822Z,48.83
2018-12-26T02:36:59.671Z,44.70
2018-12-26T02:39:29.726Z,52.63
2018-12-26T02:41:58.495Z,54.40
2018-12-26T02:44:27.823Z,46.93
2018-12-26T02:46:56.645Z,51.90
2018-12-26T02:49:25.556Z,54.73
2018-12-26T02:51:54.381Z,53.60
2018-12-26T02:54:23.159Z,46.63
2018-12-26T02:56:52.252Z,43.50
2018-12-26T02:59:21.572Z,50.70
2018-12-26T03:01:50.369Z,52.93
2018-12-26T03:04:20.636Z,55.30
2018-12-26T03:06:49.411Z,49.03
2018-12-26T03:09:18.789Z,53.50
2018-12-26T03:11:48.506Z,50.83
2018-12-26T03:14:17.301Z,50.70
2018-12-26T03:16:46.106Z,50.17
2018-12-26T03:19:16.046Z,52.97
2018-12-26T03:21:44.819Z,49.57
2018-12-26T03:24:13.676Z,49.50
2018-12-26T03:26:42.491Z,46.07
2018-12-26T03:29:11.284Z,47.83
2018-12-26T03:31:40.300Z,52.50
2018-12-26T03:34:09.561Z,55.27
2018-12-26T03:36:38.355Z,49.80
2018-12-26T03:39:07.144Z,47.07
2018-12-26T03:41:35.972Z,48.10
2018-12-26T03:44:06.206Z,55.83
2018-12-26T03:46:34.987Z,59.03
2018-12-26T03:49:03.922Z,56.53
2018-12-26T03:51:33.318Z,56.90
2018-12-26T03:54:02.091Z,58.10
2018-12-26T03:56:31.140Z,45.67
2018-12-26T03:59:01.149Z,54.77
2018-12-26T04:01:29.992Z,56.53
2018-12-26T04:03:58.823Z,51.63
2018-12-26T04:06:27.814Z,53.37
2018-12-26T04:08:56.889Z,51.27
2018-12-26T04:11:25.747Z,48.10
2018-12-26T04:13:54.468Z,51.20
2018-12-26T04:16:23.796Z,52.33
2018-12-26T04:18:52.817Z,46.73
2018-12-26T04:21:21.752Z,52.27
2018-12-26T04:23:50.541Z,46.10
2018-12-26T04:26:20.351Z,46.47
2018-12-26T04:28:49.334Z,61.10
2018-12-26T04:31:18.110Z,46.17
2018-12-26T04:33:48.915Z,51.40
2018-12-26T04:36:17.663Z,47.13
2018-12-26T04:38:46.467Z,49.87
2018-12-26T04:41:15.297Z,49.33
2018-12-26T04:43:44.644Z,47.30
2018-12-26T04:46:14.231Z,51.43
2018-12-26T04:48:43.023Z,48.03
2018-12-26T04:51:11.857Z,57.00
2018-12-26T04:53:40.631Z,53.13
2018-12-26T04:56:09.514Z,50.70
2018-12-26T04:58:38.306Z,47.57
2018-12-26T05:01:07.094Z,54.63
2018-12-26T05:03:35.924Z,51.20
2018-12-26T05:06:04.798Z,50.83
2018-12-26T05:08:33.672Z,47.00
2018-12-26T05:11:03.428Z,49.80
2018-12-26T05:13:33.643Z,49.70
2018-12-26T05:16:02.476Z,50.10
2018-12-26T05:18:31.677Z,42.37
2018-12-26T05:21:01.251Z,46.97
2018-12-26T05:23:30.214Z,51.03
2018-12-26T05:25:58.982Z,46.80
2018-12-26T05:28:27.761Z,43.93
2018-12-26T05:30:56.538Z,47.13
2018-12-26T05:33:25.311Z,49.20
2018-12-26T05:35:54.103Z,46.63
2018-12-26T05:38:23.491Z,43.63
2018-12-26T05:40:52.291Z,48.97
2018-12-26T05:43:21.208Z,46.37
2018-12-26T05:45:50.026Z,40.93
2018-12-26T05:48:18.803Z,40.00
2018-12-26T05:50:47.675Z,43.87
2018-12-26T05:53:16.521Z,47.03
2018-12-26T05:55:45.328Z,48.33
2018-12-26T05:58:14.122Z,43.50
2018-12-26T06:00:43.030Z,47.10
2018-12-26T06:03:12.475Z,40.53
2018-12-26T06:05:42.610Z,43.93
2018-12-26T06:08:11.767Z,42.50
2018-12-26T06:10:40.710Z,43.97
2018-12-26T06:13:09.502Z,43.87
2018-12-26T06:15:38.331Z,44.50
2018-12-26T06:18:08.311Z,42.97
2018-12-26T06:20:35.883Z,39.67
2018-12-26T06:23:04.666Z,40.73
2018-12-26T06:25:34.293Z,45.70
2018-12-26T06:28:03.071Z,40.70
2018-12-26T06:30:32.050Z,42.70
2018-12-26T06:33:00.832Z,43.23
2018-12-26T06:35:29.700Z,38.27
2018-12-26T06:37:58.472Z,45.27
2018-12-26T06:40:28.119Z,42.10
2018-12-26T06:42:56.914Z,40.37
2018-12-26T06:45:26.442Z,43.30
2018-12-26T06:47:55.220Z,38.33
2018-12-26T06:50:25.041Z,38.80
2018-12-26T06:52:53.876Z,39.00
2018-12-26T06:55:22.684Z,40.83
2018-12-26T06:57:59.860Z,39.40
2018-12-26T07:00:20.596Z,46.47
2018-12-26T07:02:49.751Z,38.33
2018-12-26T07:05:19.525Z,40.20
2018-12-26T07:07:48.874Z,37.87
2018-12-26T07:10:18.758Z,41.80
2018-12-26T07:12:47.665Z,41.70
2018-12-26T07:15:16.524Z,36.93
2018-12-26T07:17:45.315Z,37.53
2018-12-26T07:20:14.895Z,37.77
2018-12-26T07:22:43.740Z,36.40
2018-12-26T07:25:12.503Z,37.97
2018-12-26T07:27:41.820Z,39.87
2018-12-26T07:30:13.072Z,39.20
2018-12-26T07:32:41.871Z,39.27
2018-12-26T07:35:10.652Z,38.50
2018-12-26T07:37:39.447Z,52.83
2018-12-26T07:40:08.252Z,42.27
2018-12-26T07:42:37.110Z,40.07
2018-12-26T07:45:07.811Z,44.00
2018-12-26T07:47:36.660Z,47.70
2018-12-26T07:50:06.781Z,51.90
2018-12-26T07:52:35.699Z,43.30
2018-12-26T07:55:04.555Z,43.40
2018-12-26T07:57:33.351Z,58.37
2018-12-26T08:00:03.691Z,54.47
2018-12-26T08:02:32.496Z,53.37
2018-12-26T08:05:01.292Z,50.03
2018-12-26T08:07:30.356Z,66.37
2018-12-26T08:10:00.243Z,51.07
2018-12-26T08:12:29.057Z,63.60
2018-12-26T08:14:59.081Z,51.27
2018-12-26T08:17:27.864Z,50.57
2018-12-26T08:19:56.736Z,68.17
2018-12-26T08:22:26.635Z,65.77
2018-12-26T08:24:55.476Z,62.97
2018-12-26T08:27:24.283Z,59.43
2018-12-26T08:29:53.624Z,69.77
2018-12-26T08:32:22.411Z,74.50
2018-12-26T08:34:51.199Z,59.90
2018-12-26T08:37:20.126Z,68.30
2018-12-26T08:39:48.931Z,64.50
2018-12-26T08:42:18.579Z,68.47
2018-12-26T08:44:47.377Z,75.87
2018-12-26T08:47:16.169Z,56.03
2018-12-26T08:49:45.859Z,72.80
2018-12-26T08:52:15.250Z,66.87
2018-12-26T08:54:44.868Z,71.63
2018-12-26T08:57:13.727Z,77.33
2018-12-26T08:59:42.860Z,75.47
2018-12-26T09:02:12.399Z,66.87
2018-12-26T09:04:41.657Z,66.67
2018-12-26T09:07:10.539Z,76.13
2018-12-26T09:09:39.394Z,85.60
2018-12-26T09:12:09.881Z,82.93
2018-12-26T09:14:39.338Z,77.17
2018-12-26T09:17:08.116Z,79.43
2018-12-26T09:19:36.946Z,71.37
2018-12-26T09:22:05.842Z,68.20
2018-12-26T09:24:34.691Z,70.83
2018-12-26T09:27:06.680Z,73.00
2018-12-26T09:29:36.489Z,82.13
2018-12-26T09:32:05.539Z,68.87
2018-12-26T09:34:34.379Z,70.53
2018-12-26T09:37:03.203Z,80.27
2018-12-26T09:39:32.305Z,67.67
2018-12-26T09:42:01.443Z,85.67
2018-12-26T09:44:30.426Z,76.23
2018-12-26T09:46:59.216Z,73.03
2018-12-26T09:49:28.837Z,80.10
2018-12-26T09:51:57.739Z,81.43
2018-12-26T09:54:26.582Z,72.03
2018-12-26T09:56:55.376Z,80.80
2018-12-26T09:59:24.158Z,72.50
2018-12-26T10:01:54.459Z,74.93
2018-12-26T10:04:24.300Z,76.87
2018-12-26T10:06:53.068Z,78.27
2018-12-26T10:09:21.884Z,67.70
2018-12-26T10:11:50.682Z,77.20
2018-12-26T10:14:19.483Z,68.47
2018-12-26T10:16:48.256Z,72.13
2018-12-26T10:19:17.247Z,70.03
2018-12-26T10:21:46.179Z,79.90
2018-12-26T10:24:14.976Z,82.60
2018-12-26T10:26:43.807Z,62.40
2018-12-26T10:29:13.300Z,68.37
2018-12-26T10:31:42.198Z,78.90
2018-12-26T10:34:11.288Z,71.50
2018-12-26T10:36:41.447Z,77.17
2018-12-26T10:39:10.235Z,72.33
2018-12-26T10:41:39.036Z,68.73
2018-12-26T10:44:07.812Z,80.60
2018-12-26T10:46:36.636Z,72.93
2018-12-26T10:49:05.532Z,79.23
2018-12-26T10:51:34.281Z,83.10
2018-12-26T10:54:03.046Z,81.73
2018-12-26T10:56:31.931Z,85.53
2018-12-26T10:59:09.771Z,91.87
2018-12-26T11:01:31.774Z,90.27
2018-12-26T11:04:00.531Z,82.93
2018-12-26T11:06:29.639Z,81.30
2018-12-26T11:08:58.515Z,80.27
2018-12-26T11:11:27.299Z,89.43
2018-12-26T11:13:57.327Z,80.07
2018-12-26T11:16:27.124Z,75.27
2018-12-26T11:18:56.240Z,82.00
2018-12-26T11:21:25.163Z,75.23
2018-12-26T11:23:55.004Z,81.20
2018-12-26T11:26:23.811Z,79.57
2018-12-26T11:28:53.447Z,81.20
2018-12-26T11:31:22.286Z,75.03
2018-12-26T11:33:51.550Z,67.03
2018-12-26T11:36:20.465Z,69.43
2018-12-26T11:38:49.306Z,65.43
2018-12-26T11:41:18.291Z,66.20
2018-12-26T11:43:47.076Z,74.13
2018-12-26T11:46:15.893Z,70.97
2018-12-26T11:48:44.692Z,69.77
2018-12-26T11:51:14.014Z,66.93
2018-12-26T11:53:42.833Z,72.10
2018-12-26T11:56:11.664Z,68.67
2018-12-26T11:58:40.502Z,74.13
2018-12-26T12:01:09.350Z,58.37
2018-12-26T12:03:38.183Z,62.47
2018-12-26T12:06:09.026Z,63.00
2018-12-26T12:08:37.866Z,67.00
2018-12-26T12:11:06.688Z,67.37
2018-12-26T12:13:35.823Z,72.80
2018-12-26T12:16:05.506Z,67.10
2018-12-26T12:18:34.298Z,61.87
2018-12-26T12:21:03.160Z,54.27
2018-12-26T12:23:32.600Z,68.53
2018-12-26T12:26:01.593Z,68.00
2018-12-26T12:28:31.703Z,60.53
2018-12-26T12:31:00.483Z,76.03
2018-12-26T12:33:30.351Z,66.60
2018-12-26T12:35:59.159Z,60.90
2018-12-26T12:38:28.044Z,66.87
2018-12-26T12:40:56.854Z,61.27
2018-12-26T12:43:26.351Z,72.13
2018-12-26T12:45:56.090Z,63.70
2018-12-26T12:48:24.985Z,67.93
2018-12-26T12:50:53.805Z,63.70
2018-12-26T12:53:25.671Z,60.33
2018-12-26T12:55:54.495Z,63.70
2018-12-26T12:58:23.997Z,67.60
2018-12-26T13:00:52.982Z,73.77
2018-12-26T13:03:21.867Z,96.17
2018-12-26T13:05:50.680Z,78.10
2018-12-26T13:08:19.608Z,59.43
2018-12-26T13:10:50.153Z,69.60
2018-12-26T13:13:20.423Z,59.17
2018-12-26T13:15:49.230Z,60.80
2018-12-26T13:18:18.145Z,54.27
2018-12-26T13:20:49.325Z,63.70
2018-12-26T13:23:18.251Z,56.53
2018-12-26T13:25:47.180Z,52.93
2018-12-26T13:28:16.206Z,48.53
2018-12-26T13:30:45.042Z,52.97
2018-12-26T13:33:14.451Z,48.77
2018-12-26T13:35:43.899Z,46.80
2018-12-26T13:38:12.695Z,52.63
2018-12-26T13:40:42.085Z,49.90
2018-12-26T13:43:10.998Z,44.87
2018-12-26T13:45:39.782Z,48.80
2018-12-26T13:48:08.676Z,46.93
2018-12-26T13:50:37.463Z,48.77
2018-12-26T13:53:06.337Z,52.07
2018-12-26T13:55:36.179Z,43.17
2018-12-26T13:58:05.015Z,52.77
2018-12-26T14:00:33.806Z,38.17
2018-12-26T14:03:02.587Z,41.03
2018-12-26T14:05:31.495Z,36.73
2018-12-26T14:08:00.293Z,41.93
2018-12-26T14:10:29.112Z,33.00
2018-12-26T14:12:57.920Z,42.33
2018-12-26T14:15:26.731Z,39.40
2018-12-26T14:17:55.540Z,40.17
2018-12-26T14:20:24.508Z,32.00
2018-12-26T14:22:53.459Z,41.77
2018-12-26T14:25:22.243Z,39.90
2018-12-26T14:27:51.207Z,32.77
2018-12-26T14:30:19.999Z,35.00
2018-12-26T14:32:48.865Z,35.17
2018-12-26T14:35:17.747Z,42.03
2018-12-26T14:37:46.534Z,36.33
2018-12-26T14:40:15.398Z,41.23
2018-12-26T14:42:44.252Z,37.70
2018-12-26T14:45:13.588Z,44.33
2018-12-26T14:47:43.227Z,38.07
2018-12-26T14:50:12.076Z,36.57
2018-12-26T14:52:41.535Z,38.50
2018-12-26T14:55:11.078Z,36.63
2018-12-26T14:57:39.977Z,38.20
2018-12-26T15:00:09.319Z,37.60
2018-12-26T15:02:38.817Z,37.27
2018-12-26T15:05:07.641Z,40.97
2018-12-26T15:07:36.552Z,47.43
2018-12-26T15:10:06.546Z,41.57
2018-12-26T15:12:35.486Z,44.27
2018-12-26T15:15:04.278Z,41.17
2018-12-26T15:17:33.120Z,43.17
2018-12-26T15:20:01.910Z,47.60
2018-12-26T15:22:32.038Z,40.00
2018-12-26T15:25:00.950Z,51.30
2018-12-26T15:27:29.852Z,39.50
2018-12-26T15:29:58.807Z,45.60
2018-12-26T15:32:28.064Z,41.73
2018-12-26T15:34:57.483Z,46.27
2018-12-26T15:37:26.254Z,37.07
2018-12-26T15:39:55.075Z,39.17
2018-12-26T15:42:24.963Z,40.83
2018-12-26T15:44:53.808Z,41.63
2018-12-26T15:47:22.592Z,66.23
2018-12-26T15:49:51.993Z,75.67
2018-12-26T15:52:20.846Z,53.43
2018-12-26T15:54:49.689Z,56.27
2018-12-26T15:57:18.479Z,51.90
2018-12-26T15:59:48.488Z,48.47
2018-12-26T16:02:17.264Z,42.13
2018-12-26T16:04:47.049Z,40.10
2018-12-26T16:07:15.906Z,56.93
2018-12-26T16:09:44.815Z,45.53
2018-12-26T16:12:13.688Z,42.30
2018-12-26T16:14:42.484Z,51.00
2018-12-26T16:17:11.275Z,41.33
2018-12-26T16:19:40.129Z,43.10
2018-12-26T16:22:09.614Z,52.33
2018-12-26T16:24:38.547Z,48.33
2018-12-26T16:27:07.397Z,51.27
2018-12-26T16:29:36.797Z,50.83
2018-12-26T16:32:06.315Z,54.30
2018-12-26T16:34:35.090Z,48.20
2018-12-26T16:37:03.887Z,59.53
2018-12-26T16:39:35.814Z,56.80
2018-12-26T16:42:02.440Z,54.07
2018-12-26T16:44:31.306Z,53.07
2018-12-26T16:47:00.794Z,59.90
2018-12-26T16:49:29.684Z,51.83
2018-12-26T16:51:58.502Z,50.40
2018-12-26T16:54:27.316Z,50.97
2018-12-26T16:56:56.192Z,48.50
2018-12-26T16:59:25.024Z,56.23
2018-12-26T17:01:58.688Z,51.07
2018-12-26T17:04:27.469Z,54.87
2018-12-26T17:06:56.317Z,51.33
2018-12-26T17:09:25.479Z,95.93
2018-12-26T17:11:54.390Z,65.53
2018-12-26T17:14:23.394Z,86.60
2018-12-26T17:16:52.224Z,67.20
2018-12-26T17:19:21.020Z,62.97
2018-12-26T17:21:49.866Z,48.90
2018-12-26T17:24:18.647Z,49.80
2018-12-26T17:26:47.437Z,51.17
2018-12-26T17:29:16.342Z,46.67
2018-12-26T17:31:45.155Z,37.30
2018-12-26T17:34:15.035Z,44.83
2018-12-26T17:36:43.879Z,42.87
2018-12-26T17:39:13.037Z,36.47
2018-12-26T17:41:41.798Z,43.37
2018-12-26T17:44:10.592Z,36.60
2018-12-26T17:46:39.420Z,35.60
2018-12-26T17:49:08.292Z,30.47
2018-12-26T17:51:37.309Z,37.93
2018-12-26T17:54:17.440Z,29.20
2018-12-26T17:57:04.705Z,34.70
2018-12-26T17:59:44.362Z,33.27
2018-12-26T18:02:18.230Z,31.87
2018-12-26T18:04:47.004Z,33.83
2018-12-26T18:07:15.871Z,31.37
2018-12-26T18:09:44.677Z,26.60
2018-12-26T18:12:13.480Z,34.53
2018-12-26T18:14:42.279Z,32.97
2018-12-26T18:17:11.101Z,32.30
2018-12-26T18:19:39.939Z,33.17
2018-12-26T18:22:09.763Z,34.63
2018-12-26T18:24:39.720Z,35.93
2018-12-26T18:27:08.601Z,34.93
2018-12-26T18:29:37.470Z,36.20
2018-12-26T18:32:06.294Z,34.77
2018-12-26T18:34:35.684Z,33.57
2018-12-26T18:37:04.502Z,33.77
2018-12-26T18:39:33.331Z,27.70
2018-12-26T18:42:02.943Z,37.07
2018-12-26T18:44:31.777Z,37.50
2018-12-26T18:47:00.594Z,33.03
2018-12-26T18:49:29.502Z,76.77
2018-12-26T18:51:58.291Z,74.50
2018-12-26T18:54:27.079Z,56.40
2018-12-26T18:56:56.000Z,41.23
2018-12-26T18:59:25.370Z,40.97
2018-12-26T19:01:54.143Z,33.60
2018-12-26T19:04:23.023Z,35.50
2018-12-26T19:06:51.844Z,32.83
2018-12-26T19:09:20.624Z,39.40
2018-12-26T19:11:49.460Z,35.90
2018-12-26T19:14:18.571Z,40.93
2018-12-26T19:16:47.456Z,39.27
2018-12-26T19:19:16.282Z,39.73
2018-12-26T19:21:45.136Z,43.97
2018-12-26T19:24:13.927Z,39.60
2018-12-26T19:26:43.578Z,41.97
2018-12-26T19:29:13.374Z,40.53
2018-12-26T19:31:42.186Z,41.87
2018-12-26T19:34:11.963Z,41.87
2018-12-26T19:36:41.425Z,40.73
2018-12-26T19:39:11.281Z,41.67
2018-12-26T19:41:43.089Z,44.53
2018-12-26T19:44:10.807Z,43.43
2018-12-26T19:46:39.598Z,41.80
2018-12-26T19:49:08.428Z,40.67
2018-12-26T19:51:37.715Z,40.90
2018-12-26T19:54:06.602Z,42.30
2018-12-26T19:56:35.420Z,39.53
2018-12-26T19:59:04.973Z,38.57
2018-12-26T20:01:33.797Z,45.10
2018-12-26T20:04:03.519Z,42.40
2018-12-26T20:06:34.111Z,75.93
2018-12-26T20:09:03.052Z,60.70
2018-12-26T20:11:31.887Z,43.33
2018-12-26T20:14:00.741Z,48.97
2018-12-26T20:16:29.632Z,49.40
2018-12-26T20:18:58.553Z,48.43
2018-12-26T20:21:27.427Z,48.73
2018-12-26T20:23:56.938Z,46.63
2018-12-26T20:26:25.788Z,51.23
2018-12-26T20:28:54.575Z,47.93
2018-12-26T20:31:23.392Z,49.77
2018-12-26T20:33:52.240Z,48.27
2018-12-26T20:36:21.766Z,55.03
2018-12-26T20:38:51.599Z,47.63
2018-12-26T20:41:21.099Z,48.27
2018-12-26T20:43:49.900Z,55.83
2018-12-26T20:46:18.687Z,49.23
2018-12-26T20:48:47.463Z,51.37
2018-12-26T20:51:17.867Z,48.57
2018-12-26T20:53:46.900Z,54.67
2018-12-26T20:56:15.676Z,50.57
2018-12-26T20:58:44.474Z,55.17
2018-12-26T21:01:13.259Z,49.03
2018-12-26T21:03:42.105Z,52.43
2018-12-26T21:06:10.897Z,47.47
2018-12-26T21:08:39.695Z,48.63
2018-12-26T21:11:08.472Z,54.60
2018-12-26T21:13:38.478Z,48.27
2018-12-26T21:16:07.282Z,69.47
2018-12-26T21:18:36.140Z,65.40
2018-12-26T21:21:06.388Z,61.90
2018-12-26T21:23:35.176Z,63.70
2018-12-26T21:26:04.804Z,64.10
2018-12-26T21:28:33.632Z,58.00
2018-12-26T21:31:02.419Z,56.07
2018-12-26T21:33:31.327Z,58.80
2018-12-26T21:36:00.117Z,68.73
2018-12-26T21:38:28.907Z,65.03
2018-12-26T21:40:57.727Z,50.90
2018-12-26T21:43:26.906Z,49.63
2018-12-26T21:45:56.288Z,43.50
2018-12-26T21:48:25.167Z,50.17
2018-12-26T21:50:54.592Z,49.13
2018-12-26T21:53:24.465Z,49.17
2018-12-26T21:55:55.065Z,48.77
2018-12-26T21:58:23.851Z,45.73
2018-12-26T22:00:52.747Z,47.97
2018-12-26T22:03:21.562Z,73.10
2018-12-26T22:05:50.879Z,79.90
2018-12-26T22:08:19.658Z,71.97
2018-12-26T22:10:48.441Z,48.53
2018-12-26T22:13:18.440Z,49.23
2018-12-26T22:15:46.020Z,44.77
2018-12-26T22:18:14.890Z,51.53
2018-12-26T22:20:44.853Z,54.50
2018-12-26T22:23:14.951Z,53.53
2018-12-26T22:25:43.907Z,59.03
2018-12-26T22:28:12.823Z,55.57
2018-12-26T22:30:41.683Z,47.70
2018-12-26T22:33:11.636Z,53.33
2018-12-26T22:35:40.417Z,49.00
2018-12-26T22:38:09.313Z,52.20
2018-12-26T22:40:38.135Z,53.67
2018-12-26T22:43:07.699Z,53.30
2018-12-26T22:48:11.555Z,42.73
2018-12-26T22:50:43.001Z,46.83
2018-12-26T22:53:11.759Z,43.30
2018-12-26T22:55:40.581Z,49.40
2018-12-26T22:58:10.253Z,46.33
2018-12-26T23:00:42.855Z,50.23
2018-12-26T23:03:11.643Z,58.53
2018-12-26T23:05:40.453Z,58.40
2018-12-26T23:08:09.259Z,61.67
2018-12-26T23:10:38.128Z,68.83
2018-12-26T23:13:06.934Z,60.47
2018-12-26T23:15:35.814Z,48.53
2018-12-26T23:18:04.578Z,47.37
2018-12-26T23:20:33.920Z,48.40
2018-12-26T23:23:02.858Z,42.20
2018-12-26T23:25:31.737Z,48.67
2018-12-26T23:28:00.529Z,50.93
2018-12-26T23:30:29.376Z,44.27
2018-12-26T23:32:58.142Z,50.13
2018-12-26T23:35:26.984Z,45.53
2018-12-26T23:37:56.309Z,46.83
2018-12-26T23:40:29.862Z,52.13
2018-12-26T23:43:00.002Z,49.17
2018-12-26T23:45:28.906Z,44.23
2018-12-26T23:47:57.695Z,42.53
2018-12-26T23:50:26.492Z,43.70
2018-12-26T23:52:55.283Z,40.00
2018-12-26T23:55:24.658Z,41.63
2018-12-26T23:57:53.478Z,45.40
